createdAt,value
2023-03-08T00:00:24.376Z,3.67
2023-03-08T00:02:53.265Z,3.67
2023-03-08T00:05:22.567Z,3.33
2023-03-08T00:07:53.290Z,3.43
2023-03-08T00:10:21.642Z,2.70
2023-03-08T00:12:49.646Z,2.83
2023-03-08T00:15:17.756Z,2.83
2023-03-08T00:17:45.612Z,3.13
2023-03-08T00:20:14.666Z,3.30
2023-03-08T00:22:44.259Z,2.80
2023-03-08T00:25:13.779Z,2.80
2023-03-08T00:27:41.821Z,2.67
2023-03-08T00:30:11.745Z,2.97
2023-03-08T00:32:39.854Z,2.70
2023-03-08T00:35:08.496Z,3.00
2023-03-08T00:37:36.424Z,2.87
2023-03-08T00:40:07.344Z,3.00
2023-03-08T00:42:35.325Z,2.90
2023-03-08T00:45:03.286Z,2.37
2023-03-08T00:47:31.224Z,2.70
2023-03-08T00:49:59.396Z,2.80
2023-03-08T00:52:27.326Z,3.10
2023-03-08T00:54:55.160Z,2.97
2023-03-08T00:57:24.442Z,2.83
2023-03-08T00:59:52.354Z,2.80
2023-03-08T01:02:20.494Z,2.83
2023-03-08T01:04:48.386Z,2.60
2023-03-08T01:07:16.370Z,3.10
2023-03-08T01:09:44.346Z,2.67
2023-03-08T01:12:12.237Z,2.70
2023-03-08T01:14:41.583Z,3.10
2023-03-08T01:17:09.452Z,2.80
2023-03-08T01:19:38.037Z,2.43
2023-03-08T01:22:06.067Z,2.17
2023-03-08T01:24:34.204Z,3.00
2023-03-08T01:27:02.123Z,2.23
2023-03-08T01:29:30.173Z,2.53
2023-03-08T01:31:59.354Z,2.70
2023-03-08T01:34:27.241Z,2.67
2023-03-08T01:36:55.138Z,2.50
2023-03-08T01:39:23.277Z,2.70
2023-03-08T01:41:51.273Z,2.60
2023-03-08T01:44:22.643Z,2.50
2023-03-08T01:46:50.815Z,2.60
2023-03-08T01:49:24.192Z,3.00
2023-03-08T01:51:56.651Z,2.33
2023-03-08T01:54:28.279Z,2.40
2023-03-08T01:57:00.639Z,2.90
2023-03-08T01:59:31.481Z,3.07
2023-03-08T02:01:59.517Z,3.20
2023-03-08T02:04:29.119Z,3.13
2023-03-08T02:06:57.062Z,3.30
2023-03-08T02:09:25.266Z,3.10
2023-03-08T02:11:53.749Z,3.03
2023-03-08T02:14:21.807Z,3.27
2023-03-08T02:16:49.796Z,3.30
2023-03-08T02:19:24.747Z,3.60
2023-03-08T02:21:54.017Z,3.07
2023-03-08T02:24:26.086Z,3.77
2023-03-08T02:27:02.389Z,3.53
2023-03-08T02:29:30.414Z,3.00
2023-03-08T02:31:58.486Z,3.13
2023-03-08T02:34:26.421Z,3.63
2023-03-08T02:36:54.319Z,3.80
2023-03-08T02:39:23.650Z,2.83
2023-03-08T02:41:51.529Z,3.50
2023-03-08T02:44:19.448Z,3.87
2023-03-08T02:46:47.342Z,3.30
2023-03-08T02:49:15.299Z,2.97
2023-03-08T02:51:43.258Z,3.47
2023-03-08T02:54:11.439Z,3.10
2023-03-08T02:56:41.181Z,3.33
2023-03-08T02:59:09.112Z,3.40
2023-03-08T03:01:37.813Z,3.80
2023-03-08T03:04:05.761Z,3.20
2023-03-08T03:06:34.464Z,3.50
2023-03-08T03:09:02.569Z,3.53
2023-03-08T03:11:30.501Z,4.07
2023-03-08T03:14:02.156Z,3.70
2023-03-08T03:16:30.354Z,3.83
2023-03-08T03:18:58.298Z,3.83
2023-03-08T03:21:26.395Z,4.30
2023-03-08T03:23:55.633Z,3.77
2023-03-08T03:26:26.196Z,4.33
2023-03-08T03:28:57.154Z,4.03
2023-03-08T03:31:27.462Z,3.83
2023-03-08T03:33:55.471Z,3.90
2023-03-08T03:36:24.178Z,3.67
2023-03-08T03:38:53.155Z,4.07
2023-03-08T03:41:22.536Z,3.13
2023-03-08T03:43:51.396Z,3.87
2023-03-08T03:46:21.581Z,3.10
2023-03-08T03:48:50.980Z,3.70
2023-03-08T03:51:20.744Z,3.83
2023-03-08T03:53:49.516Z,3.40
2023-03-08T03:56:19.251Z,3.57
2023-03-08T03:58:47.958Z,3.70
2023-03-08T04:01:18.373Z,3.87
2023-03-08T04:03:46.258Z,4.07
2023-03-08T04:06:18.059Z,3.63
2023-03-08T04:08:46.542Z,4.63
2023-03-08T04:11:16.282Z,5.53
2023-03-08T04:13:44.893Z,4.87
2023-03-08T04:16:14.062Z,4.87
2023-03-08T04:18:42.536Z,5.20
2023-03-08T04:21:11.256Z,5.13
2023-03-08T04:23:40.580Z,4.57
2023-03-08T04:26:08.953Z,4.90
2023-03-08T04:28:37.337Z,5.70
2023-03-08T04:31:14.042Z,5.20
2023-03-08T04:33:41.970Z,5.20
2023-03-08T04:36:10.385Z,5.43
2023-03-08T04:38:38.348Z,5.90
2023-03-08T04:41:11.953Z,5.50
2023-03-08T04:43:40.216Z,5.37
2023-03-08T04:46:09.144Z,5.80
2023-03-08T04:48:38.535Z,5.67
2023-03-08T04:51:08.390Z,4.93
2023-03-08T04:53:36.812Z,5.57
2023-03-08T04:56:05.293Z,5.30
2023-03-08T04:58:35.173Z,4.73
2023-03-08T05:01:10.590Z,4.10
2023-03-08T05:03:38.496Z,4.77
2023-03-08T05:06:07.050Z,4.87
2023-03-08T05:08:35.234Z,4.43
2023-03-08T05:11:04.717Z,4.20
2023-03-08T05:13:35.272Z,4.57
2023-03-08T05:16:03.647Z,4.80
2023-03-08T05:18:31.743Z,5.07
2023-03-08T05:21:01.897Z,5.43
2023-03-08T05:23:30.670Z,4.67
2023-03-08T05:26:00.588Z,4.67
2023-03-08T05:28:30.792Z,4.72
2023-03-08T05:31:04.354Z,4.97
2023-03-08T05:33:32.842Z,4.53
2023-03-08T05:36:03.101Z,4.53
2023-03-08T05:38:31.244Z,4.50
2023-03-08T05:41:02.309Z,4.50
2023-03-08T05:43:30.509Z,4.80
2023-03-08T05:46:00.220Z,5.10
2023-03-08T05:48:29.876Z,5.70
2023-03-08T05:50:57.877Z,5.93
2023-03-08T05:53:26.212Z,6.27
2023-03-08T05:55:55.560Z,7.00
2023-03-08T05:58:23.476Z,6.50
2023-03-08T06:00:51.373Z,5.80
2023-03-08T06:03:20.286Z,5.67
2023-03-08T06:05:49.538Z,5.70
2023-03-08T06:08:17.518Z,5.23
2023-03-08T06:10:45.397Z,5.53
2023-03-08T06:13:13.279Z,6.00
2023-03-08T06:15:41.164Z,5.40
2023-03-08T06:18:09.032Z,5.77
2023-03-08T06:20:36.947Z,5.67
2023-03-08T06:23:06.394Z,6.07
2023-03-08T06:25:34.262Z,6.43
2023-03-08T06:28:02.397Z,6.03
2023-03-08T06:30:30.349Z,5.20
2023-03-08T06:32:58.218Z,5.70
2023-03-08T06:35:26.181Z,6.07
2023-03-08T06:37:54.177Z,5.53
2023-03-08T06:40:25.830Z,5.53
2023-03-08T06:42:53.721Z,5.20
2023-03-08T06:45:21.611Z,5.60
2023-03-08T06:47:49.532Z,5.57
2023-03-08T06:50:18.066Z,5.37
2023-03-08T06:52:46.019Z,5.13
2023-03-08T06:55:13.935Z,4.53
2023-03-08T06:57:43.434Z,4.47
2023-03-08T07:00:13.307Z,4.93
2023-03-08T07:02:41.277Z,4.50
2023-03-08T07:05:10.069Z,4.17
2023-03-08T07:07:39.727Z,4.60
2023-03-08T07:10:08.879Z,4.60
2023-03-08T07:12:40.130Z,4.60
2023-03-08T07:15:10.696Z,4.07
2023-03-08T07:17:38.721Z,5.37
2023-03-08T07:20:08.027Z,4.73
2023-03-08T07:22:36.210Z,4.43
2023-03-08T07:25:04.273Z,4.80
2023-03-08T07:27:32.240Z,4.50
2023-03-08T07:30:00.216Z,5.03
2023-03-08T07:32:29.782Z,4.60
2023-03-08T07:34:58.298Z,4.60
2023-03-08T07:37:26.263Z,4.33
2023-03-08T07:39:54.233Z,5.13
2023-03-08T07:42:22.205Z,4.67
2023-03-08T07:44:50.157Z,4.77
2023-03-08T07:47:18.117Z,5.30
2023-03-08T07:49:47.352Z,4.70
2023-03-08T07:52:15.423Z,4.73
2023-03-08T07:54:43.855Z,5.00
2023-03-08T07:57:14.547Z,5.30
2023-03-08T07:59:42.731Z,5.17
2023-03-08T08:02:12.677Z,5.60
2023-03-08T08:04:40.726Z,5.30
2023-03-08T08:07:14.408Z,5.13
2023-03-08T08:09:42.574Z,5.10
2023-03-08T08:12:10.903Z,5.20
2023-03-08T08:14:38.872Z,5.30
2023-03-08T08:17:06.929Z,5.03
2023-03-08T08:19:35.039Z,5.73
2023-03-08T08:22:03.167Z,5.77
2023-03-08T08:24:32.950Z,5.47
2023-03-08T08:27:00.845Z,5.07
2023-03-08T08:29:28.956Z,6.43
2023-03-08T08:31:57.259Z,4.97
2023-03-08T08:34:25.929Z,5.10
2023-03-08T08:36:53.900Z,5.93
2023-03-08T08:39:21.836Z,6.40
2023-03-08T08:41:51.779Z,5.63
2023-03-08T08:44:19.742Z,5.47
2023-03-08T08:46:47.719Z,6.43
2023-03-08T08:49:15.614Z,6.00
2023-03-08T08:51:43.495Z,6.30
2023-03-08T08:54:11.551Z,5.87
2023-03-08T08:56:42.885Z,6.20
2023-03-08T08:59:13.285Z,5.77
2023-03-08T09:01:43.824Z,6.30
2023-03-08T09:04:13.260Z,5.70
2023-03-08T09:06:41.627Z,6.37
2023-03-08T09:09:09.802Z,6.10
2023-03-08T09:11:51.990Z,5.97
2023-03-08T09:14:23.344Z,6.13
2023-03-08T09:16:52.517Z,5.80
2023-03-08T09:19:20.706Z,5.60
2023-03-08T09:21:48.706Z,6.73
2023-03-08T09:24:16.994Z,6.77
2023-03-08T09:26:44.954Z,8.47
2023-03-08T09:29:13.214Z,6.77
2023-03-08T09:31:45.249Z,6.50
2023-03-08T09:34:15.413Z,7.03
2023-03-08T09:36:43.767Z,6.43
2023-03-08T09:39:14.124Z,6.73
2023-03-08T09:41:53.951Z,6.57
2023-03-08T09:44:47.327Z,6.37
2023-03-08T09:47:27.234Z,6.20
2023-03-08T09:49:59.843Z,6.93
2023-03-08T09:52:33.582Z,6.97
2023-03-08T09:55:04.415Z,6.30
2023-03-08T09:57:37.270Z,7.10
2023-03-08T10:00:09.771Z,6.87
2023-03-08T10:02:47.856Z,6.70
2023-03-08T10:05:22.356Z,7.23
2023-03-08T10:07:56.538Z,7.20
2023-03-08T10:10:34.488Z,6.87
2023-03-08T10:13:22.398Z,6.43
2023-03-08T10:15:54.161Z,6.20
2023-03-08T10:18:30.921Z,7.10
2023-03-08T10:21:00.573Z,6.80
2023-03-08T10:23:31.657Z,6.67
2023-03-08T10:26:01.013Z,6.33
2023-03-08T10:28:29.537Z,6.60
2023-03-08T10:31:00.420Z,7.03
2023-03-08T10:33:33.495Z,6.77
2023-03-08T10:36:04.641Z,7.13
2023-03-08T10:38:34.638Z,7.73
2023-03-08T10:41:04.240Z,7.53
2023-03-08T10:43:33.941Z,7.00
2023-03-08T10:46:04.789Z,6.93
2023-03-08T10:48:34.351Z,7.13
2023-03-08T10:51:05.597Z,7.37
2023-03-08T10:53:34.485Z,6.83
2023-03-08T10:56:02.910Z,6.87
2023-03-08T10:58:34.870Z,7.23
2023-03-08T11:01:05.531Z,6.47
2023-03-08T11:03:35.674Z,5.67
2023-03-08T11:06:05.679Z,7.10
2023-03-08T11:08:39.122Z,6.87
2023-03-08T11:11:10.363Z,6.90
2023-03-08T11:13:41.689Z,7.03
2023-03-08T11:16:29.879Z,6.67
2023-03-08T11:19:07.740Z,6.93
2023-03-08T11:21:49.660Z,6.50
2023-03-08T11:24:34.201Z,7.47
2023-03-08T11:27:19.694Z,6.67
2023-03-08T11:30:01.144Z,6.47
2023-03-08T11:32:48.293Z,6.73
2023-03-08T11:35:25.389Z,7.00
2023-03-08T11:38:01.171Z,6.63
2023-03-08T11:40:32.885Z,6.50
2023-03-08T11:43:14.250Z,6.53
2023-03-08T11:45:50.480Z,6.57
2023-03-08T11:48:48.559Z,6.90
2023-03-08T11:51:23.585Z,6.23
2023-03-08T11:54:02.060Z,6.57
2023-03-08T11:56:40.988Z,5.53
2023-03-08T11:59:17.705Z,6.53
2023-03-08T12:01:51.347Z,5.97
2023-03-08T12:04:23.293Z,6.27
2023-03-08T12:06:56.419Z,5.80
2023-03-08T12:09:29.350Z,5.80
2023-03-08T12:12:03.622Z,5.57
2023-03-08T12:14:34.462Z,5.90
2023-03-08T12:17:08.862Z,6.17
2023-03-08T12:19:43.481Z,5.40
2023-03-08T12:22:26.446Z,5.80
2023-03-08T12:25:00.213Z,5.90
2023-03-08T12:27:33.414Z,5.90
2023-03-08T12:30:08.123Z,6.10
2023-03-08T12:32:38.830Z,5.60
2023-03-08T12:35:24.788Z,5.53
2023-03-08T12:37:58.883Z,5.27
2023-03-08T12:40:31.928Z,5.77
2023-03-08T12:43:09.083Z,5.90
2023-03-08T12:45:37.481Z,5.60
2023-03-08T12:48:21.534Z,5.33
2023-03-08T12:51:03.493Z,5.80
2023-03-08T12:53:37.600Z,5.43
2023-03-08T12:56:15.015Z,5.40
2023-03-08T12:58:51.315Z,5.43
2023-03-08T13:01:31.977Z,5.93
2023-03-08T13:04:01.219Z,5.47
2023-03-08T13:07:05.575Z,5.80
2023-03-08T13:09:39.174Z,5.67
2023-03-08T13:12:23.539Z,5.20
2023-03-08T13:15:03.104Z,5.70
2023-03-08T13:17:39.273Z,5.60
2023-03-08T13:20:17.003Z,6.13
2023-03-08T13:23:02.588Z,5.47
2023-03-08T13:25:50.544Z,6.00
2023-03-08T13:28:20.676Z,5.90
2023-03-08T13:30:52.196Z,5.27
2023-03-08T13:33:23.151Z,5.97
2023-03-08T13:36:00.897Z,5.73
2023-03-08T13:38:31.207Z,5.53
2023-03-08T13:41:00.858Z,4.93
2023-03-08T13:43:30.593Z,5.27
2023-03-08T13:46:02.109Z,5.80
2023-03-08T13:48:32.731Z,5.57
2023-03-08T13:51:01.228Z,4.97
2023-03-08T13:53:32.864Z,5.13
2023-03-08T13:56:05.449Z,5.37
2023-03-08T13:58:35.888Z,5.10
2023-03-08T14:01:10.941Z,6.73
2023-03-08T14:03:39.488Z,5.70
2023-03-08T14:06:20.073Z,6.20
2023-03-08T14:08:48.924Z,5.40
2023-03-08T14:11:22.923Z,5.47
2023-03-08T14:13:52.866Z,5.47
2023-03-08T14:16:27.745Z,5.20
2023-03-08T14:18:57.159Z,5.33
2023-03-08T14:21:27.988Z,5.60
2023-03-08T14:23:58.792Z,5.20
2023-03-08T14:26:31.296Z,4.90
2023-03-08T14:29:15.265Z,5.53
2023-03-08T14:31:57.944Z,5.10
2023-03-08T14:34:28.752Z,5.10
2023-03-08T14:36:59.459Z,5.33
2023-03-08T14:39:29.462Z,4.70
2023-03-08T14:41:58.893Z,5.20
2023-03-08T14:44:29.287Z,5.13
2023-03-08T14:47:00.240Z,5.13
2023-03-08T14:49:30.145Z,5.43
2023-03-08T14:51:58.191Z,5.07
2023-03-08T14:54:32.971Z,5.20
2023-03-08T14:57:14.826Z,5.37
2023-03-08T14:59:43.511Z,4.90
2023-03-08T15:02:12.889Z,5.43
2023-03-08T15:04:41.469Z,5.87
2023-03-08T15:07:19.081Z,4.80
2023-03-08T15:09:47.942Z,5.03
2023-03-08T15:12:17.864Z,4.77
2023-03-08T15:14:45.954Z,5.13
2023-03-08T15:17:13.942Z,4.80
2023-03-08T15:19:41.849Z,5.00
2023-03-08T15:22:13.726Z,5.17
2023-03-08T15:24:41.904Z,5.30
2023-03-08T15:27:14.429Z,5.60
2023-03-08T15:29:43.799Z,5.40
2023-03-08T15:32:11.813Z,5.50
2023-03-08T15:34:40.740Z,5.07
2023-03-08T15:37:14.701Z,4.57
2023-03-08T15:39:42.726Z,5.30
2023-03-08T15:42:10.666Z,5.60
2023-03-08T15:44:38.663Z,5.00
2023-03-08T15:47:10.617Z,4.90
2023-03-08T15:49:38.559Z,4.47
2023-03-08T15:52:09.988Z,5.13
2023-03-08T15:54:40.218Z,4.83
2023-03-08T15:57:09.514Z,4.80
2023-03-08T15:59:37.467Z,4.77
2023-03-08T16:02:07.105Z,5.10
2023-03-08T16:04:35.070Z,4.93
2023-03-08T16:07:03.425Z,5.10
2023-03-08T16:09:31.491Z,5.10
2023-03-08T16:12:01.202Z,4.73
2023-03-08T16:14:29.190Z,4.40
2023-03-08T16:16:57.147Z,4.87
2023-03-08T16:19:26.384Z,5.17
2023-03-08T16:21:54.299Z,5.20
2023-03-08T16:24:22.271Z,5.17
2023-03-08T16:26:50.183Z,5.00
2023-03-08T16:29:18.167Z,4.83
2023-03-08T16:31:46.145Z,5.07
2023-03-08T16:34:14.198Z,5.20
2023-03-08T16:36:43.598Z,5.40
2023-03-08T16:39:11.941Z,4.60
2023-03-08T16:41:41.146Z,5.60
2023-03-08T16:44:17.387Z,5.13
2023-03-08T16:46:45.282Z,4.93
2023-03-08T16:49:13.359Z,5.20
2023-03-08T16:51:41.289Z,5.00
2023-03-08T16:54:11.059Z,5.13
2023-03-08T16:56:40.667Z,4.83
2023-03-08T16:59:08.646Z,4.97
2023-03-08T17:01:36.739Z,4.93
2023-03-08T17:04:04.685Z,4.70
2023-03-08T17:06:33.665Z,4.67
2023-03-08T17:09:02.291Z,5.40
2023-03-08T17:11:33.672Z,4.17
2023-03-08T17:14:08.332Z,4.80
2023-03-08T17:16:36.886Z,4.53
2023-03-08T17:19:07.469Z,4.60
2023-03-08T17:21:38.263Z,5.17
2023-03-08T17:24:09.085Z,4.83
2023-03-08T17:26:42.552Z,4.87
2023-03-08T17:29:11.235Z,5.13
2023-03-08T17:31:41.055Z,4.17
2023-03-08T17:34:09.135Z,4.93
2023-03-08T17:36:37.266Z,5.40
2023-03-08T17:39:06.119Z,5.27
2023-03-08T17:41:34.394Z,5.20
2023-03-08T17:44:04.512Z,5.40
2023-03-08T17:46:32.558Z,5.37
2023-03-08T17:49:00.776Z,4.60
2023-03-08T17:51:30.385Z,4.97
2023-03-08T17:53:59.718Z,5.80
2023-03-08T17:56:30.010Z,5.47
2023-03-08T17:58:59.382Z,5.23
2023-03-08T18:01:30.244Z,5.43
2023-03-08T18:03:58.689Z,5.80
2023-03-08T18:06:29.804Z,4.87
2023-03-08T18:08:58.484Z,6.17
2023-03-08T18:11:27.045Z,5.43
2023-03-08T18:13:55.205Z,5.73
2023-03-08T18:16:24.487Z,5.50
2023-03-08T18:18:53.790Z,5.60
2023-03-08T18:21:22.400Z,5.90
2023-03-08T18:23:50.721Z,5.77
2023-03-08T18:26:19.357Z,5.47
2023-03-08T18:28:47.765Z,5.83
2023-03-08T18:31:17.756Z,6.07
2023-03-08T18:33:46.064Z,5.77
2023-03-08T18:36:15.354Z,5.97
2023-03-08T18:38:43.528Z,6.50
2023-03-08T18:41:16.474Z,5.97
2023-03-08T18:43:45.238Z,6.37
2023-03-08T18:46:14.007Z,6.50
2023-03-08T18:48:43.323Z,6.00
2023-03-08T18:51:11.250Z,6.33
2023-03-08T18:53:40.578Z,5.80
2023-03-08T18:56:09.176Z,6.30
2023-03-08T18:58:37.114Z,6.27
2023-03-08T19:01:11.634Z,6.20
2023-03-08T19:03:39.861Z,6.90
2023-03-08T19:06:08.335Z,6.83
2023-03-08T19:08:36.400Z,6.33
2023-03-08T19:11:13.721Z,5.73
2023-03-08T19:13:42.726Z,6.27
2023-03-08T19:16:19.593Z,6.93
2023-03-08T19:18:48.608Z,6.70
2023-03-08T19:21:17.880Z,6.47
2023-03-08T19:23:46.184Z,6.97
2023-03-08T19:26:36.499Z,6.87
2023-03-08T19:29:06.625Z,6.37
2023-03-08T19:31:36.568Z,7.23
2023-03-08T19:34:05.870Z,7.30
2023-03-08T19:36:35.356Z,7.07
2023-03-08T19:39:03.914Z,7.07
2023-03-08T19:41:33.375Z,7.47
2023-03-08T19:44:06.948Z,7.13
2023-03-08T19:46:35.165Z,7.10
2023-03-08T19:49:03.636Z,7.67
2023-03-08T19:51:31.560Z,8.07
2023-03-08T19:53:59.867Z,8.60
2023-03-08T19:56:28.061Z,8.27
2023-03-08T19:58:57.282Z,7.27
2023-03-08T20:01:25.312Z,8.57
2023-03-08T20:03:53.879Z,8.97
2023-03-08T20:06:26.231Z,9.30
2023-03-08T20:08:55.517Z,9.43
2023-03-08T20:11:23.506Z,9.13
2023-03-08T20:13:51.524Z,9.13
2023-03-08T20:16:21.810Z,8.90
2023-03-08T20:18:50.187Z,9.00
2023-03-08T20:21:18.939Z,9.23
2023-03-08T20:23:47.215Z,8.80
2023-03-08T20:26:15.211Z,9.33
2023-03-08T20:28:43.114Z,9.63
2023-03-08T20:31:11.962Z,9.93
2023-03-08T20:33:41.474Z,9.70
2023-03-08T20:36:09.876Z,9.43
2023-03-08T20:38:38.005Z,9.87
2023-03-08T20:41:09.659Z,9.47
2023-03-08T20:43:39.915Z,9.77
2023-03-08T20:46:09.937Z,9.50
2023-03-08T20:48:39.536Z,10.57
2023-03-08T20:51:11.918Z,9.30
2023-03-08T20:53:41.342Z,10.47
2023-03-08T20:56:12.778Z,9.40
2023-03-08T20:58:40.695Z,10.07
2023-03-08T21:01:12.440Z,10.33
2023-03-08T21:03:41.009Z,9.37
2023-03-08T21:06:15.312Z,10.30
2023-03-08T21:08:43.277Z,10.07
2023-03-08T21:11:11.250Z,11.00
2023-03-08T21:13:40.036Z,9.90
2023-03-08T21:16:10.213Z,9.67
2023-03-08T21:18:38.350Z,10.80
2023-03-08T21:21:06.812Z,9.67
2023-03-08T21:23:36.135Z,9.80
2023-03-08T21:26:04.188Z,10.30
2023-03-08T21:28:32.027Z,9.53
2023-03-08T21:30:59.954Z,10.50
2023-03-08T21:33:27.946Z,9.73
2023-03-08T21:35:58.464Z,9.60
2023-03-08T21:38:26.389Z,9.57
2023-03-08T21:40:56.064Z,9.13
2023-03-08T21:43:24.037Z,9.53
2023-03-08T21:45:52.099Z,9.77
2023-03-08T21:48:20.064Z,10.10
2023-03-08T21:50:48.044Z,9.37
2023-03-08T21:53:15.952Z,9.80
2023-03-08T21:55:43.892Z,9.50
2023-03-08T21:58:13.188Z,8.70
2023-03-08T22:00:41.155Z,9.07
2023-03-08T22:03:09.141Z,9.20
2023-03-08T22:05:38.724Z,9.67
2023-03-08T22:08:06.886Z,8.60
2023-03-08T22:10:35.268Z,10.13
2023-03-08T22:13:03.221Z,9.73
2023-03-08T22:15:32.542Z,10.03
2023-03-08T22:18:00.456Z,10.57
2023-03-08T22:20:28.554Z,10.60
2023-03-08T22:22:56.470Z,10.97
2023-03-08T22:25:24.440Z,10.33
2023-03-08T22:27:52.347Z,10.70
2023-03-08T22:30:20.581Z,10.40
2023-03-08T22:32:49.798Z,10.50
2023-03-08T22:35:18.202Z,10.77
2023-03-08T22:37:46.515Z,9.47
2023-03-08T22:40:15.066Z,10.50
2023-03-08T22:42:42.920Z,9.80
2023-03-08T22:45:12.689Z,9.87
2023-03-08T22:47:40.614Z,9.57
2023-03-08T22:50:11.661Z,10.23
2023-03-08T22:52:39.587Z,10.30
2023-03-08T22:55:08.466Z,10.37
2023-03-08T22:57:37.781Z,9.63
2023-03-08T23:00:14.186Z,9.80
2023-03-08T23:02:42.261Z,9.17
2023-03-08T23:05:14.148Z,10.40
2023-03-08T23:07:42.201Z,10.00
2023-03-08T23:10:11.583Z,9.90
2023-03-08T23:12:40.916Z,10.67
2023-03-08T23:15:10.286Z,9.43
2023-03-08T23:17:38.191Z,9.90
2023-03-08T23:20:07.106Z,10.83
2023-03-08T23:22:36.306Z,10.17
2023-03-08T23:25:04.890Z,8.97
2023-03-08T23:27:33.752Z,10.50
2023-03-08T23:30:03.132Z,9.67
2023-03-08T23:32:31.059Z,9.20
2023-03-08T23:34:59.330Z,9.23
2023-03-08T23:37:27.678Z,9.10
2023-03-08T23:39:56.920Z,8.77
2023-03-08T23:42:26.057Z,9.43
2023-03-08T23:44:54.075Z,9.47
2023-03-08T23:47:21.946Z,8.63
2023-03-08T23:49:51.614Z,8.90
2023-03-08T23:52:21.061Z,9.07
2023-03-08T23:54:49.290Z,9.23
2023-03-08T23:57:18.597Z,8.50
2023-03-08T23:59:46.595Z,9.20
